Time;durP1;ratioP1;P1;durP2;ratioP2;P2;SDS_P1;SDS_P2;PMS_P1;PMS_P2;Temp;Humidity;BMP_temperature;BMP_pressure;BME280_temperature;BME280_humidity;BME280_pressure;Samples;Min_cycle;Max_cycle;Signal;HPM_P1;HPM_P2
2023/11/30 00:00:46;;;;;;;2.92;1.98;;;;;;;-7.04;100.00;99686.38;5011872;28;20065;-82
2023/11/30 00:03:14;;;;;;;3.22;1.85;;;;;;;-7.05;100.00;99684.72;5004373;28;20054;-83
2023/11/30 00:05:47;;;;;;;4.75;2.97;;;;;;;-6.98;100.00;99676.84;5023698;28;20056;-83
2023/11/30 00:08:20;;;;;;;4.05;3.08;;;;;;;-7.01;100.00;99680.69;5010248;28;20049;-83
2023/11/30 00:10:53;;;;;;;4.28;2.90;;;;;;;-7.02;100.00;99676.41;5010537;28;20049;-83
2023/11/30 00:13:26;;;;;;;5.35;3.08;;;;;;;-7.05;100.00;99678.63;5008709;28;20483;-83
2023/11/30 00:15:56;;;;;;;6.38;2.95;;;;;;;-7.04;100.00;99681.06;5022999;28;20680;-83
2023/11/30 00:18:24;;;;;;;4.22;2.28;;;;;;;-7.03;100.00;99681.88;5006863;28;20050;-83
2023/11/30 00:20:57;;;;;;;3.90;2.88;;;;;;;-7.04;100.00;99696.13;5011080;28;20050;-83
2023/11/30 00:23:32;;;;;;;3.60;1.75;;;;;;;-7.13;100.00;99682.19;5007723;28;20391;-83
2023/11/30 00:26:06;;;;;;;3.50;2.45;;;;;;;-7.12;100.00;99690.97;5004611;28;20054;-83
2023/11/30 00:28:35;;;;;;;5.47;2.63;;;;;;;-7.22;100.00;99689.44;5011393;28;20483;-83
2023/11/30 00:31:09;;;;;;;5.55;3.03;;;;;;;-7.25;100.00;99683.72;5011370;28;20065;-83
2023/11/30 00:33:37;;;;;;;3.17;2.22;;;;;;;-7.24;100.00;99680.06;5024627;28;20169;-83
2023/11/30 00:36:08;;;;;;;4.65;1.98;;;;;;;-7.18;100.00;99695.16;5008227;28;20065;-83
2023/11/30 00:38:41;;;;;;;4.30;3.08;;;;;;;-7.19;100.00;99683.78;5010017;28;20034;-83
2023/11/30 00:41:14;;;;;;;1.65;1.25;;;;;;;-7.31;100.00;99687.13;5009598;28;20057;-83
2023/11/30 00:43:48;;;;;;;2.85;1.90;;;;;;;-7.39;100.00;99693.31;5010918;28;20046;-83
2023/11/30 00:46:23;;;;;;;3.35;2.05;;;;;;;-7.47;100.00;99698.72;5009612;28;20410;-83
2023/11/30 00:48:51;;;;;;;5.55;2.95;;;;;;;-7.46;100.00;99695.09;5021617;28;20053;-84
2023/11/30 00:51:24;;;;;;;3.47;2.25;;;;;;;-7.49;100.00;99690.19;5006519;28;20056;-82
2023/11/30 00:53:52;;;;;;;4.55;1.85;;;;;;;-7.45;100.00;99689.59;5009612;28;20060;-84
2023/11/30 00:56:20;;;;;;;2.40;1.75;;;;;;;-7.53;100.00;99695.81;5020351;28;20065;-83
2023/11/30 00:58:53;;;;;;;3.70;1.88;;;;;;;-7.53;100.00;99702.94;5010786;28;20487;-83
2023/11/30 01:01:23;;;;;;;3.60;1.67;;;;;;;-7.62;100.00;99709.31;5008156;28;20046;-85
2023/11/30 01:03:56;;;;;;;2.13;1.65;;;;;;;-7.65;100.00;99701.78;5019800;28;20051;-85
2023/11/30 01:06:30;;;;;;;3.70;2.33;;;;;;;-7.58;100.00;99706.13;5021420;28;20519;-85
2023/11/30 01:08:58;;;;;;;2.10;1.67;;;;;;;-7.52;100.00;99705.38;5010381;28;20494;-86
2023/11/30 01:11:31;;;;;;;4.00;2.33;;;;;;;-7.60;100.00;99712.59;5027435;28;20045;-85
2023/11/30 01:14:04;;;;;;;3.50;2.20;;;;;;;-7.59;100.00;99704.50;5010132;28;20081;-85
2023/11/30 01:16:40;;;;;;;2.63;1.63;;;;;;;-7.60;100.00;99715.25;5005973;28;20487;-86
2023/11/30 01:19:13;;;;;;;3.15;2.20;;;;;;;-7.50;100.00;99713.13;5004522;28;20748;-86
2023/11/30 01:21:41;;;;;;;1.85;1.65;;;;;;;-7.50;100.00;99717.59;5003009;28;20049;-86
2023/11/30 01:24:10;;;;;;;4.22;2.38;;;;;;;-7.43;100.00;99718.50;5015356;28;20057;-86
2023/11/30 01:26:44;;;;;;;3.67;2.15;;;;;;;-7.44;100.00;99722.13;5013470;28;20752;-86
2023/11/30 01:29:18;;;;;;;18.13;9.23;;;;;;;-7.44;100.00;99724.78;5012022;28;20464;-86
2023/11/30 01:31:48;;;;;;;19.65;9.05;;;;;;;-7.30;100.00;99721.28;5003947;28;20470;-86
2023/11/30 01:34:21;;;;;;;18.50;9.35;;;;;;;-7.37;100.00;99721.22;5000493;28;20496;-86
2023/11/30 01:36:54;;;;;;;17.98;9.30;;;;;;;-7.39;100.00;99731.16;5016028;28;20421;-86
2023/11/30 01:39:27;;;;;;;21.52;10.32;;;;;;;-7.36;100.00;99733.44;5001236;28;20431;-86
2023/11/30 01:42:00;;;;;;;10.30;5.40;;;;;;;-7.29;100.00;99725.56;5008025;28;20057;-85
2023/11/30 01:44:28;;;;;;;8.23;3.50;;;;;;;-7.37;100.00;99723.03;5013076;28;20050;-86
2023/11/30 01:47:04;;;;;;;6.20;3.95;;;;;;;-7.47;100.00;99719.88;5001466;28;20057;-85
2023/11/30 01:49:38;;;;;;;4.97;2.97;;;;;;;-7.56;100.00;99722.63;5017472;28;20069;-86
2023/11/30 01:52:07;;;;;;;4.05;2.28;;;;;;;-7.55;100.00;99723.44;5015283;28;20058;-85
2023/11/30 01:54:40;;;;;;;5.57;2.70;;;;;;;-7.58;100.00;99716.72;5004474;28;20042;-86
2023/11/30 01:57:14;;;;;;;5.20;2.22;;;;;;;-7.50;100.00;99723.69;5007292;28;20054;-86
2023/11/30 01:59:48;;;;;;;4.53;2.20;;;;;;;-7.47;100.00;99719.88;5016394;28;20045;-85
2023/11/30 02:02:19;;;;;;;3.47;2.53;;;;;;;-7.46;100.00;99724.97;5009693;28;20065;-86
2023/11/30 02:04:53;;;;;;;3.25;2.38;;;;;;;-7.52;100.00;99715.16;5010476;28;20624;-86
2023/11/30 02:07:27;;;;;;;2.08;1.50;;;;;;;-7.54;100.00;99714.50;5017897;28;20667;-86
2023/11/30 02:10:00;;;;;;;2.80;1.58;;;;;;;-7.53;100.00;99713.50;5011663;28;20047;-86
2023/11/30 02:12:33;;;;;;;2.60;1.90;;;;;;;-7.55;100.00;99715.53;5024483;28;20046;-86
2023/11/30 02:15:03;;;;;;;2.78;1.63;;;;;;;-7.66;100.00;99708.88;5010118;28;20058;-85
2023/11/30 02:17:37;;;;;;;2.75;1.83;;;;;;;-7.74;100.00;99719.56;5005854;28;20046;-86
2023/11/30 02:20:11;;;;;;;4.15;2.35;;;;;;;-7.78;100.00;99713.00;5003180;28;20046;-86
2023/11/30 02:22:40;;;;;;;3.40;1.98;;;;;;;-7.73;100.00;99715.91;5004871;28;20582;-86
2023/11/30 02:25:14;;;;;;;7.82;2.85;;;;;;;-7.79;100.00;99708.72;5025505;28;20041;-86
2023/11/30 02:27:47;;;;;;;3.20;2.58;;;;;;;-7.78;100.00;99708.53;5010508;28;20418;-86
2023/11/30 02:30:20;;;;;;;4.30;2.20;;;;;;;-7.73;100.00;99702.72;5009770;28;20053;-86
2023/11/30 02:32:54;;;;;;;2.10;1.48;;;;;;;-7.63;100.00;99694.50;5011125;28;20061;-86
2023/11/30 02:35:22;;;;;;;6.65;1.40;;;;;;;-7.49;100.00;99708.69;5006842;28;20054;-86
2023/11/30 02:37:57;;;;;;;3.90;2.03;;;;;;;-7.50;100.00;99691.19;5010121;28;20046;-86
2023/11/30 02:40:25;;;;;;;2.55;1.90;;;;;;;-7.39;100.00;99695.97;5011055;28;20513;-86
2023/11/30 02:42:58;;;;;;;1.88;1.73;;;;;;;-7.44;100.00;99693.06;5006202;28;20050;-86
2023/11/30 02:45:26;;;;;;;2.95;1.90;;;;;;;-7.40;100.00;99689.03;5010364;28;20042;-86
2023/11/30 02:47:59;;;;;;;2.13;1.63;;;;;;;-7.36;100.00;99687.66;5008301;28;20061;-86
2023/11/30 02:50:32;;;;;;;5.60;2.95;;;;;;;-7.39;100.00;99691.53;5008199;28;20050;-86
2023/11/30 02:53:02;;;;;;;2.47;1.85;;;;;;;-7.34;100.00;99688.31;5010785;28;20056;-86
2023/11/30 02:55:35;;;;;;;1.88;1.15;;;;;;;-7.32;100.00;99688.13;5007797;28;20423;-84
2023/11/30 02:58:03;;;;;;;3.28;2.03;;;;;;;-7.33;100.00;99686.47;5009037;28;20054;-85
2023/11/30 03:00:36;;;;;;;2.92;1.73;;;;;;;-7.28;100.00;99678.81;5010072;28;20549;-84
2023/11/30 03:03:09;;;;;;;2.05;1.30;;;;;;;-7.35;100.00;99686.66;5007807;28;20053;-84
2023/11/30 03:05:43;;;;;;;2.50;1.67;;;;;;;-7.34;100.00;99693.59;5005920;28;20038;-84
2023/11/30 03:08:17;;;;;;;2.67;1.70;;;;;;;-7.35;100.00;99687.50;5010342;28;20058;-85
2023/11/30 03:10:51;;;;;;;3.50;1.83;;;;;;;-7.38;100.00;99685.19;5025860;28;20674;-84
2023/11/30 03:13:24;;;;;;;2.50;1.80;;;;;;;-7.35;100.00;99689.31;5006546;28;20057;-85
2023/11/30 03:15:57;;;;;;;1.85;1.27;;;;;;;-7.48;100.00;99689.16;5021536;28;20050;-84
2023/11/30 03:18:25;;;;;;;0.93;0.90;;;;;;;-7.54;100.00;99682.78;5004592;28;20482;-84
2023/11/30 03:20:58;;;;;;;3.22;1.98;;;;;;;-7.53;100.00;99693.16;4995093;28;20403;-84
2023/11/30 03:23:34;;;;;;;2.30;1.77;;;;;;;-7.38;100.00;99694.97;5013285;28;20054;-83
2023/11/30 03:26:07;;;;;;;2.38;1.50;;;;;;;-7.41;100.00;99685.59;5004691;28;20033;-84
2023/11/30 03:28:40;;;;;;;2.78;2.05;;;;;;;-7.51;100.00;99682.44;5008998;28;20059;-84
2023/11/30 03:31:13;;;;;;;2.55;1.55;;;;;;;-7.48;100.00;99681.22;5008459;28;20057;-85
2023/11/30 03:33:47;;;;;;;3.88;1.65;;;;;;;-7.48;100.00;99689.97;5010822;28;20048;-83
2023/11/30 03:36:15;;;;;;;1.50;1.05;;;;;;;-7.51;100.00;99679.78;5012399;28;20376;-85
2023/11/30 03:38:53;;;;;;;3.65;2.00;;;;;;;-7.54;100.00;99682.78;5007279;28;20045;-84
2023/11/30 03:41:26;;;;;;;1.45;1.30;;;;;;;-7.48;100.00;99692.63;5026366;28;20453;-86
2023/11/30 03:43:59;;;;;;;2.05;1.45;;;;;;;-7.46;100.00;99689.78;5010522;28;20064;-86
2023/11/30 03:46:28;;;;;;;2.15;1.75;;;;;;;-7.32;100.00;99691.56;5014352;28;20422;-85
2023/11/30 03:48:57;;;;;;;2.85;1.95;;;;;;;-7.21;100.00;99684.97;5010635;28;20042;-86
2023/11/30 03:51:30;;;;;;;2.20;1.55;;;;;;;-7.17;100.00;99683.59;5006699;28;20065;-85
2023/11/30 03:54:05;;;;;;;2.90;1.63;;;;;;;-7.16;100.00;99679.13;5015724;28;20529;-85
2023/11/30 03:56:38;;;;;;;2.72;1.95;;;;;;;-7.13;100.00;99687.50;5007601;28;20280;-86
2023/11/30 03:59:06;;;;;;;3.55;1.98;;;;;;;-7.23;100.00;99694.94;5009127;28;20057;-86
2023/11/30 04:01:39;;;;;;;2.88;1.33;;;;;;;-7.40;100.00;99697.81;5011355;28;20057;-85
2023/11/30 04:04:12;;;;;;;3.53;2.03;;;;;;;-7.60;100.00;99696.75;5009897;28;20058;-86
2023/11/30 04:06:41;;;;;;;2.95;1.90;;;;;;;-7.87;100.00;99705.16;5015226;28;20042;-86
2023/11/30 04:09:10;;;;;;;3.63;1.77;;;;;;;-7.82;100.00;99699.31;5010863;28;20054;-86
2023/11/30 04:11:43;;;;;;;3.08;1.85;;;;;;;-7.95;100.00;99701.81;5013784;28;20068;-86
2023/11/30 04:14:16;;;;;;;3.40;2.20;;;;;;;-7.86;100.00;99711.25;5005782;28;20058;-86
2023/11/30 04:16:44;;;;;;;3.78;2.65;;;;;;;-7.87;100.00;99705.16;5012278;28;20053;-86
2023/11/30 04:19:13;;;;;;;2.25;1.77;;;;;;;-7.87;100.00;99691.97;5010788;28;20057;-86
2023/11/30 04:21:46;;;;;;;19.35;8.65;;;;;;;-7.96;100.00;99700.97;5028752;28;20486;-86
2023/11/30 04:24:21;;;;;;;19.52;9.27;;;;;;;-7.95;100.00;99699.19;5012075;28;20803;-86
2023/11/30 04:26:49;;;;;;;21.40;9.55;;;;;;;-7.88;100.00;99687.69;5007178;28;20489;-85
2023/11/30 04:29:22;;;;;;;18.08;8.68;;;;;;;-7.95;100.00;99699.19;5020869;28;20488;-86
2023/11/30 04:31:56;;;;;;;17.00;7.88;;;;;;;-7.93;100.00;99687.41;5012338;28;20849;-86
2023/11/30 04:34:30;;;;;;;16.00;7.68;;;;;;;-7.89;100.00;99698.44;5010860;28;20425;-86
2023/11/30 04:37:03;;;;;;;16.17;7.63;;;;;;;-7.86;100.00;99698.91;5018590;28;20424;-85
2023/11/30 04:39:32;;;;;;;19.07;8.30;;;;;;;-7.90;100.00;99696.78;5013551;28;21066;-85
2023/11/30 04:42:01;;;;;;;17.57;7.77;;;;;;;-7.86;100.00;99684.84;5006454;28;20436;-86
2023/11/30 04:44:30;;;;;;;19.70;8.60;;;;;;;-7.80;100.00;99692.06;5011290;28;20839;-86
2023/11/30 04:47:03;;;;;;;17.00;8.02;;;;;;;-7.74;100.00;99687.84;5010447;28;20421;-86
2023/11/30 04:49:31;;;;;;;19.77;8.88;;;;;;;-7.75;100.00;99688.84;5011387;28;20425;-84
2023/11/30 04:51:59;;;;;;;18.63;8.45;;;;;;;-7.80;100.00;99686.78;5018265;28;20428;-85
2023/11/30 04:54:34;;;;;;;19.42;8.80;;;;;;;-7.74;100.00;99691.31;5005387;28;20423;-86
2023/11/30 04:57:07;;;;;;;19.70;8.57;;;;;;;-7.76;100.00;99687.19;5001123;28;20508;-86
2023/11/30 04:59:40;;;;;;;21.13;9.50;;;;;;;-7.79;100.00;99680.47;5011253;28;20420;-86
2023/11/30 05:02:09;;;;;;;20.38;9.52;;;;;;;-7.92;100.00;99682.97;5010060;28;20809;-87
2023/11/30 05:04:42;;;;;;;20.98;9.75;;;;;;;-7.93;100.00;99678.66;5024349;28;20421;-86
2023/11/30 05:07:15;;;;;;;19.65;9.27;;;;;;;-8.00;100.00;99675.13;5027695;28;20486;-87
2023/11/30 05:09:50;;;;;;;23.50;10.07;;;;;;;-7.93;100.00;99678.66;5010545;28;20491;-87
2023/11/30 05:12:18;;;;;;;20.40;9.30;;;;;;;-7.96;100.00;99679.03;5001391;28;20430;-86
2023/11/30 05:14:51;;;;;;;21.27;9.50;;;;;;;-8.00;100.00;99683.88;5011027;28;20923;-86
2023/11/30 05:17:19;;;;;;;22.25;10.02;;;;;;;-8.04;100.00;99685.22;5022560;28;20430;-86
2023/11/30 05:19:52;;;;;;;23.48;10.30;;;;;;;-7.99;100.00;99687.34;5006405;28;20430;-86
2023/11/30 05:22:26;;;;;;;24.50;10.40;;;;;;;-8.03;100.00;99685.03;5008645;28;20540;-86
2023/11/30 05:24:55;;;;;;;24.17;10.75;;;;;;;-8.01;100.00;99682.22;5005764;28;20418;-86
2023/11/30 05:27:23;;;;;;;23.95;10.45;;;;;;;-8.15;100.00;99699.69;5010416;28;20778;-86
2023/11/30 05:29:56;;;;;;;24.50;10.02;;;;;;;-8.13;100.00;99697.72;5010957;28;20508;-87
2023/11/30 05:32:30;;;;;;;22.88;10.55;;;;;;;-8.15;100.00;99698.91;5022024;28;20434;-87
2023/11/30 05:34:58;;;;;;;24.27;10.13;;;;;;;-8.24;100.00;99696.34;5004187;28;20417;-87
2023/11/30 05:37:26;;;;;;;25.83;11.27;;;;;;;-8.21;100.00;99693.34;5011968;28;20866;-86
2023/11/30 05:40:00;;;;;;;26.55;10.90;;;;;;;-8.25;100.00;99699.97;5012262;28;20601;-87
2023/11/30 05:42:34;;;;;;;27.60;12.70;;;;;;;-8.22;100.00;99690.88;5007561;28;20436;-86
2023/11/30 05:45:07;;;;;;;33.30;14.80;;;;;;;-8.21;100.00;99705.72;5003513;28;20422;-84
2023/11/30 05:47:35;;;;;;;33.10;14.70;;;;;;;-8.24;100.00;99700.81;5002615;28;20406;-84
2023/11/30 05:50:04;;;;;;;29.85;13.38;;;;;;;-8.21;100.00;99701.25;5010422;28;20417;-84
2023/11/30 05:52:32;;;;;;;31.40;13.18;;;;;;;-8.23;100.00;99700.63;5002813;28;20433;-84
2023/11/30 05:55:08;;;;;;;26.20;12.20;;;;;;;-8.20;100.00;99705.53;5020073;28;20423;-85
2023/11/30 05:57:36;;;;;;;28.67;12.75;;;;;;;-8.20;100.00;99708.19;5009579;28;20428;-84
2023/11/30 06:00:06;;;;;;;32.53;14.48;;;;;;;-8.18;100.00;99702.72;5007946;28;20417;-83
2023/11/30 06:02:40;;;;;;;29.88;12.93;;;;;;;-8.24;100.00;99716.66;5006894;28;20449;-84
2023/11/30 06:05:13;;;;;;;29.90;13.10;;;;;;;-8.32;100.00;99716.72;5004067;28;20487;-84
2023/11/30 06:07:44;;;;;;;29.83;13.60;;;;;;;-8.18;100.00;99707.19;5017891;28;20421;-87
2023/11/30 06:10:15;;;;;;;28.35;13.25;;;;;;;-8.24;100.00;99720.09;5009086;28;20424;-87
2023/11/30 06:12:48;;;;;;;29.30;13.43;;;;;;;-8.34;100.00;99719.56;5012336;28;20412;-87
2023/11/30 06:15:16;;;;;;;28.50;13.60;;;;;;;-8.34;100.00;99721.34;5002931;28;20439;-86
2023/11/30 06:17:50;;;;;;;29.45;14.32;;;;;;;-8.27;100.00;99712.56;4999011;28;20420;-86
2023/11/30 06:20:19;;;;;;;31.67;13.80;;;;;;;-8.35;100.00;99714.44;5012407;28;20756;-87
2023/11/30 06:22:52;;;;;;;28.73;13.55;;;;;;;-8.38;100.00;99720.91;5007326;28;20427;-87
2023/11/30 06:25:27;;;;;;;28.20;13.07;;;;;;;-8.53;100.00;99725.34;5003355;28;20431;-86
2023/11/30 06:28:00;;;;;;;28.20;12.87;;;;;;;-8.51;100.00;99724.19;5009983;28;20421;-87
2023/11/30 06:30:33;;;;;;;29.77;13.18;;;;;;;-8.80;100.00;99719.66;5003278;28;20444;-86
2023/11/30 06:33:01;;;;;;;29.85;12.98;;;;;;;-8.78;100.00;99728.19;5007855;28;20424;-87
2023/11/30 06:35:29;;;;;;;29.48;13.07;;;;;;;-8.81;100.00;99725.91;5006781;28;20437;-85
2023/11/30 06:38:02;;;;;;;29.52;13.48;;;;;;;-8.77;100.00;99735.13;5007964;28;20921;-86
2023/11/30 06:40:32;;;;;;;30.63;13.77;;;;;;;-8.77;100.00;99730.69;5008232;28;20801;-87
2023/11/30 06:43:00;;;;;;;27.30;12.27;;;;;;;-8.67;100.00;99738.34;5009884;28;20414;-87
2023/11/30 06:45:28;;;;;;;36.03;17.08;;;;;;;-8.62;100.00;99737.81;5006418;28;20451;-87
2023/11/30 06:47:56;;;;;;;33.83;16.45;;;;;;;-8.61;100.00;99742.91;5006604;28;20434;-87
2023/11/30 06:50:24;;;;;;;30.85;15.07;;;;;;;-8.49;100.00;99734.53;5021746;28;20430;-87
2023/11/30 06:52:58;;;;;;;33.73;15.40;;;;;;;-8.42;100.00;99732.81;5008504;28;20507;-87
2023/11/30 06:55:26;;;;;;;31.95;14.93;;;;;;;-8.47;100.00;99735.19;5006396;28;20432;-87
2023/11/30 06:58:00;;;;;;;29.08;14.10;;;;;;;-8.55;100.00;99741.34;5006795;28;20431;-86
2023/11/30 07:00:28;;;;;;;28.00;12.60;;;;;;;-8.57;100.00;99749.47;5006341;28;20762;-86
2023/11/30 07:03:01;;;;;;;26.95;12.23;;;;;;;-8.55;100.00;99754.56;5008836;28;20455;-87
2023/11/30 07:05:29;;;;;;;30.87;14.20;;;;;;;-8.64;100.00;99753.00;5005068;28;20431;-87
2023/11/30 07:08:03;;;;;;;29.65;15.23;;;;;;;-8.74;100.00;99755.84;5007768;28;20432;-86
2023/11/30 07:10:32;;;;;;;26.75;12.70;;;;;;;-8.77;100.00;99753.56;5006552;28;20425;-87
2023/11/30 07:13:01;;;;;;;28.05;12.65;;;;;;;-8.78;100.00;99757.19;5008282;28;20435;-86
2023/11/30 07:15:29;;;;;;;25.00;11.25;;;;;;;-8.73;100.00;99754.88;5012248;28;20433;-87
2023/11/30 07:17:57;;;;;;;26.53;11.87;;;;;;;-9.07;100.00;99758.75;5007392;28;20449;-84
2023/11/30 07:20:31;;;;;;;26.08;11.70;;;;;;;-9.07;100.00;99756.09;5005226;28;20422;-87
2023/11/30 07:23:04;;;;;;;24.65;10.85;;;;;;;-9.09;100.00;99758.88;5017907;28;20433;-87
2023/11/30 07:25:33;;;;;;;23.52;10.82;;;;;;;-8.95;100.00;99764.41;5015603;28;21141;-85
2023/11/30 07:28:07;;;;;;;21.53;10.47;;;;;;;-8.98;100.00;99765.59;5005058;28;20432;-88
2023/11/30 07:30:40;;;;;;;23.20;11.00;;;;;;;-8.94;100.00;99772.16;5001586;28;20432;-86
2023/11/30 07:33:08;;;;;;;23.27;10.88;;;;;;;-8.80;100.00;99767.13;5005555;28;20437;-88
2023/11/30 07:35:37;;;;;;;26.17;11.43;;;;;;;-8.73;100.00;99768.06;5000857;28;20804;-87
2023/11/30 07:38:06;;;;;;;28.27;12.93;;;;;;;-8.65;100.00;99772.44;5007457;28;20527;-87
2023/11/30 07:40:40;;;;;;;28.55;13.25;;;;;;;-8.53;100.00;99762.28;5008349;28;20420;-87
2023/11/30 07:43:11;;;;;;;28.83;12.80;;;;;;;-8.41;100.00;99766.09;5003106;28;20923;-84
2023/11/30 07:45:44;;;;;;;34.10;14.57;;;;;;;-8.39;100.00;99767.56;5005210;28;20429;-86
2023/11/30 07:48:17;;;;;;;29.77;12.88;;;;;;;-8.36;100.00;99774.31;5002223;28;20432;-86
2023/11/30 07:50:46;;;;;;;29.20;12.57;;;;;;;-8.31;100.00;99769.34;5004204;28;20489;-87
2023/11/30 07:53:19;;;;;;;31.67;13.73;;;;;;;-8.26;100.00;99769.63;5008977;28;20466;-86
2023/11/30 07:55:47;;;;;;;33.78;14.23;;;;;;;-8.12;100.00;99770.66;5016710;28;20428;-85
2023/11/30 07:58:22;;;;;;;29.90;14.37;;;;;;;-8.06;100.00;99766.47;5005789;28;20935;-87
2023/11/30 08:00:56;;;;;;;36.23;15.70;;;;;;;-7.93;100.00;99763.19;5002712;28;20429;-87
2023/11/30 08:03:29;;;;;;;42.25;17.58;;;;;;;-7.83;100.00;99774.28;4997476;28;20417;-86
2023/11/30 08:06:03;;;;;;;35.95;16.70;;;;;;;-7.65;100.00;99768.66;4999019;28;20455;-86
2023/11/30 08:08:36;;;;;;;32.72;15.57;;;;;;;-7.69;100.00;99772.66;5008580;28;20428;-86
2023/11/30 08:11:05;;;;;;;33.40;14.85;;;;;;;-7.69;100.00;99762.91;5005249;28;20982;-87
2023/11/30 08:13:40;;;;;;;30.35;14.13;;;;;;;-7.70;100.00;99773.66;5000003;28;20422;-86
2023/11/30 08:16:13;;;;;;;30.38;13.95;;;;;;;-7.80;100.00;99768.66;4999644;28;20479;-87
2023/11/30 08:18:47;;;;;;;34.15;14.18;;;;;;;-7.87;100.00;99773.00;4998980;28;20429;-85
2023/11/30 08:21:21;;;;;;;29.15;13.30;;;;;;;-7.83;100.00;99776.91;4995757;28;20496;-86
2023/11/30 08:23:49;;;;;;;29.48;12.15;;;;;;;-7.81;100.00;99772.28;4994677;28;20440;-83
2023/11/30 08:26:18;;;;;;;24.40;11.27;;;;;;;-7.81;100.00;99779.41;4991454;28;20433;-85
2023/11/30 08:28:52;;;;;;;27.38;11.98;;;;;;;-7.79;100.00;99777.38;4988131;28;20438;-85
2023/11/30 08:31:25;;;;;;;25.38;11.45;;;;;;;-8.52;100.00;99787.69;4995781;28;20436;-85
2023/11/30 08:33:58;;;;;;;26.60;10.47;;;;;;;-9.21;100.00;99797.19;4990135;28;20437;-86
2023/11/30 08:36:27;;;;;;;26.67;10.73;;;;;;;-9.26;100.00;99787.16;4994946;28;20425;-84
2023/11/30 08:39:00;;;;;;;25.95;11.40;;;;;;;-9.21;100.00;99797.19;5007025;28;20457;-85
2023/11/30 08:41:28;;;;;;;26.40;10.90;;;;;;;-9.20;100.00;99787.47;4997134;28;20899;-86
2023/11/30 08:43:58;;;;;;;28.40;11.63;;;;;;;-8.95;100.00;99793.41;4997575;28;20442;-88
2023/11/30 08:46:27;;;;;;;25.33;11.85;;;;;;;-8.82;100.00;99796.31;4997650;28;20424;-84
2023/11/30 08:48:55;;;;;;;24.63;11.32;;;;;;;-8.69;100.00;99794.91;4998156;28;20507;-84
2023/11/30 08:51:28;;;;;;;28.88;12.20;;;;;;;-8.64;100.00;99795.22;4999118;28;20478;-90
2023/11/30 08:53:56;;;;;;;28.42;12.23;;;;;;;-8.55;100.00;99796.75;4997409;28;20432;-88
2023/11/30 08:56:25;;;;;;;26.97;11.27;;;;;;;-8.63;100.00;99799.47;4991799;28;21005;-82
2023/11/30 08:59:00;;;;;;;26.87;11.73;;;;;;;-8.57;100.00;99794.31;4998297;28;20428;-82
2023/11/30 09:01:28;;;;;;;28.87;12.53;;;;;;;-8.56;100.00;99785.41;4994808;28;20440;-84
2023/11/30 09:04:04;;;;;;;27.65;11.98;;;;;;;-8.85;100.00;99803.72;4992562;28;20434;-86
2023/11/30 09:06:33;;;;;;;27.40;12.27;;;;;;;-8.98;100.00;99813.03;4998818;28;20718;-84
2023/11/30 09:09:06;;;;;;;31.83;13.18;;;;;;;-9.33;100.00;99804.66;4995785;28;20437;-84
2023/11/30 09:11:39;;;;;;;27.55;11.75;;;;;;;-9.42;100.00;99806.53;4997778;28;20464;-87
2023/11/30 09:14:09;;;;;;;29.85;12.80;;;;;;;-9.41;100.00;99812.59;4991807;28;20444;-84
2023/11/30 09:16:42;;;;;;;31.05;12.57;;;;;;;-9.40;100.00;99811.63;4986646;28;20433;-86
2023/11/30 09:19:15;;;;;;;27.95;11.48;;;;;;;-9.31;100.00;99813.19;4994788;28;20968;-86
2023/11/30 09:21:48;;;;;;;27.60;12.20;;;;;;;-9.10;100.00;99806.50;4998472;28;20421;-83
2023/11/30 09:24:22;;;;;;;32.83;13.48;;;;;;;-8.96;100.00;99803.16;4995460;28;20431;-84
2023/11/30 09:26:53;;;;;;;29.35;13.13;;;;;;;-8.79;100.00;99803.84;4991568;28;20433;-83
2023/11/30 09:29:22;;;;;;;29.10;12.65;;;;;;;-8.63;100.00;99802.94;4999850;28;20933;-81
2023/11/30 09:31:55;;;;;;;31.50;14.23;;;;;;;-8.50;100.00;99804.16;5002461;28;20433;-82
2023/11/30 09:34:23;;;;;;;41.63;20.40;;;;;;;-8.39;100.00;99809.78;4989409;28;20459;-81
2023/11/30 09:36:58;;;;;;;35.23;16.40;;;;;;;-8.32;100.00;99809.09;4994266;28;20472;-85
2023/11/30 09:39:32;;;;;;;30.35;13.02;;;;;;;-8.45;100.00;99810.56;4995455;28;20835;-88
2023/11/30 09:42:00;;;;;;;29.95;13.60;;;;;;;-8.67;100.00;99814.00;4995173;28;20420;-85
2023/11/30 09:44:35;;;;;;;27.93;12.60;;;;;;;-8.70;100.00;99807.25;4997613;28;20435;-83
2023/11/30 09:47:04;;;;;;;25.60;12.15;;;;;;;-8.91;100.00;99799.97;4996237;28;20440;-85
2023/11/30 09:49:32;;;;;;;27.60;11.80;;;;;;;-8.95;100.00;99794.25;5000730;28;20436;-85
2023/11/30 09:52:01;;;;;;;25.15;11.70;;;;;;;-8.94;100.00;99801.16;4996149;28;20421;-84
2023/11/30 09:54:35;;;;;;;25.50;11.95;;;;;;;-8.82;100.00;99800.75;4999592;28;20452;-85
2023/11/30 09:57:04;;;;;;;28.98;12.90;;;;;;;-8.79;100.00;99792.50;4993550;28;20437;-84
2023/11/30 09:59:32;;;;;;;26.98;12.32;;;;;;;-8.77;100.00;99793.13;4994546;28;20441;-84
2023/11/30 10:02:02;;;;;;;25.30;12.43;;;;;;;-8.69;100.00;99787.81;4992042;28;20435;-84
2023/11/30 10:04:35;;;;;;;25.27;12.00;;;;;;;-8.51;100.00;99782.22;4996656;28;20455;-85
2023/11/30 10:07:03;;;;;;;25.98;12.35;;;;;;;-8.51;100.00;99791.97;4992446;28;20419;-83
2023/11/30 10:09:35;;;;;;;25.65;12.30;;;;;;;-8.49;100.00;99789.97;4991113;28;20423;-85
2023/11/30 10:12:04;;;;;;;14.15;6.40;;;;;;;-8.35;100.00;99791.81;4999198;28;20042;-86
2023/11/30 10:14:32;;;;;;;12.85;5.53;;;;;;;-8.28;100.00;99787.44;4998737;28;20060;-85
2023/11/30 10:17:07;;;;;;;;;;;;;;;-8.37;100.00;99786.72;4987050;28;20061;-84
2023/11/30 10:19:40;;;;;;;4.53;3.05;;;;;;;-8.16;100.00;99779.91;4994191;28;19940;-86
2023/11/30 10:22:08;;;;;;;7.45;3.00;;;;;;;-8.14;100.00;99783.19;4986830;28;20088;-83
2023/11/30 10:24:36;;;;;;;3.92;2.45;;;;;;;-8.07;100.00;99781.47;5000071;28;20061;-84
2023/11/30 10:27:14;;;;;;;4.88;2.85;;;;;;;-8.07;100.00;99775.38;4994978;28;20061;-86
2023/11/30 10:29:48;;;;;;;;;;;;;;;-8.00;100.00;99776.28;4993674;28;20054;-86
2023/11/30 10:32:23;;;;;;;2.72;1.65;;;;;;;-7.95;100.00;99779.22;4996595;28;19929;-85
2023/11/30 10:34:58;;;;;;;6.97;2.30;;;;;;;-7.96;100.00;99782.03;4986860;28;20054;-84
2023/11/30 10:37:34;;;;;;;2.97;1.73;;;;;;;-7.95;100.00;99773.13;5009455;28;20068;-85
2023/11/30 10:40:10;;;;;;;4.78;2.63;;;;;;;-7.84;100.00;99771.81;4994581;28;20077;-86
2023/11/30 10:42:41;;;;;;;17.20;6.75;;;;;;;-7.76;100.00;99774.38;4994683;28;20050;-85
2023/11/30 10:45:11;;;;;;;10.57;5.57;;;;;;;-7.57;100.00;99768.53;4996115;28;20058;-84
2023/11/30 10:47:46;;;;;;;7.75;3.50;;;;;;;-7.45;100.00;99765.44;4995860;28;20120;-84
2023/11/30 10:50:20;;;;;;;5.80;3.40;;;;;;;-7.32;100.00;99764.78;4995536;28;20414;-85
2023/11/30 10:52:52;;;;;;;9.02;3.70;;;;;;;-7.18;100.00;99759.47;5001363;28;20049;-85
2023/11/30 10:55:26;;;;;;;6.93;3.28;;;;;;;-7.09;100.00;99752.22;4996744;28;20065;-85
2023/11/30 10:57:54;;;;;;;7.07;3.55;;;;;;;-7.04;100.00;99759.59;5000306;28;20065;-83
2023/11/30 11:00:34;;;;;;;6.32;2.92;;;;;;;-6.86;100.00;99757.34;4992660;28;20129;-85
2023/11/30 11:03:09;;;;;;;6.60;2.35;;;;;;;-6.57;100.00;99746.78;4988744;28;20058;-90
2023/11/30 11:05:44;;;;;;;5.80;3.28;;;;;;;-6.26;100.00;99748.28;4996090;28;20050;-87
2023/11/30 11:08:12;;;;;;;8.25;3.92;;;;;;;-6.09;100.00;99739.03;4995893;28;21234;-87
2023/11/30 11:10:40;;;;;;;6.68;3.42;;;;;;;-5.79;100.00;99748.53;5003453;28;20038;-85
2023/11/30 11:13:18;;;;;;;11.73;4.38;;;;;;;-5.64;100.00;99750.03;4997872;28;20042;-84
2023/11/30 11:15:59;;;;;;;6.78;3.95;;;;;;;-5.53;100.00;99750.50;5003179;28;20487;-87
2023/11/30 11:18:35;;;;;;;7.70;4.70;;;;;;;-5.39;100.00;99738.13;4997308;28;20042;-87
2023/11/30 11:21:25;;;;;;;6.28;3.63;;;;;;;-5.17;100.00;99744.91;5004056;28;20047;-88
2023/11/30 11:24:03;;;;;;;7.38;3.17;;;;;;;-4.92;100.00;99741.72;5006677;28;20970;-86
2023/11/30 11:26:44;;;;;;;7.88;4.15;;;;;;;-4.71;100.00;99739.91;5005475;28;20041;-86
2023/11/30 11:29:19;;;;;;;10.27;3.42;;;;;;;-4.52;100.00;99739.09;4996553;28;20065;-86
2023/11/30 11:31:47;;;;;;;6.53;3.55;;;;;;;-4.40;100.00;99734.00;5004163;28;20053;-84
2023/11/30 11:34:22;;;;;;;8.52;4.25;;;;;;;-4.33;100.00;99723.38;4998804;28;20091;-83
2023/11/30 11:36:55;;;;;;;8.85;3.72;;;;;;;-4.22;100.00;99720.09;4999796;28;20066;-82